Time;durP1;ratioP1;P1;durP2;ratioP2;P2;SDS_P1;SDS_P2;PMS_P1;PMS_P2;Temp;Humidity;BMP_temperature;BMP_pressure;BME280_temperature;BME280_humidity;BME280_pressure;Samples;Min_cycle;Max_cycle;Signal;HPM_P1;HPM_P2
2024/03/22 00:01:52;;;;;;;6.68;2.67;;;15.60;72.40;;;;;;2362245;53;20967;-66
2024/03/22 00:04:19;;;;;;;4.32;2.85;;;15.60;72.40;;;;;;2363005;53;20994;-66
2024/03/22 00:06:47;;;;;;;6.65;2.58;;;15.60;72.40;;;;;;2362777;53;20925;-67
2024/03/22 00:09:14;;;;;;;5.12;2.95;;;15.50;72.20;;;;;;2363672;53;21066;-66
2024/03/22 00:11:40;;;;;;;6.12;3.33;;;15.50;72.30;;;;;;2364413;53;21001;-68
2024/03/22 00:14:07;;;;;;;5.25;2.78;;;15.50;72.30;;;;;;2361198;53;21179;-68
2024/03/22 00:16:34;;;;;;;5.47;3.12;;;15.50;72.20;;;;;;2363122;53;20919;-66
2024/03/22 00:19:00;;;;;;;6.12;3.50;;;15.50;72.30;;;;;;2361785;53;21925;-66
2024/03/22 00:21:28;;;;;;;7.00;3.10;;;15.50;72.30;;;;;;2362814;53;21756;-65
2024/03/22 00:23:54;;;;;;;5.40;3.40;;;15.40;72.20;;;;;;2362424;53;20982;-65
2024/03/22 00:26:23;;;;;;;7.70;3.40;;;15.40;72.20;;;;;;2362538;53;20970;-66
2024/03/22 00:28:49;;;;;;;6.68;3.55;;;15.40;72.20;;;;;;2362655;53;21503;-67
2024/03/22 00:31:16;;;;;;;7.15;3.97;;;15.40;72.30;;;;;;2362460;53;21776;-67
2024/03/22 00:33:42;;;;;;;6.82;3.45;;;15.40;72.30;;;;;;2362391;53;21272;-66
2024/03/22 00:36:08;;;;;;;6.43;3.12;;;15.30;72.20;;;;;;2362621;53;20942;-67
2024/03/22 00:38:36;;;;;;;4.90;3.03;;;15.30;72.30;;;;;;2362845;53;20923;-66
2024/03/22 00:41:03;;;;;;;4.57;2.60;;;15.30;72.40;;;;;;2363800;53;21128;-66
2024/03/22 00:43:29;;;;;;;4.62;2.60;;;15.30;72.50;;;;;;2365638;53;21014;-67
2024/03/22 00:45:55;;;;;;;6.72;2.42;;;15.20;72.40;;;;;;2362252;53;20958;-66
2024/03/22 00:48:23;;;;;;;3.85;2.33;;;15.20;72.50;;;;;;2365623;53;20954;-66
2024/03/22 00:50:49;;;;;;;5.07;2.47;;;15.20;72.50;;;;;;2347480;53;20935;-67
2024/03/22 00:53:16;;;;;;;5.07;2.25;;;15.20;72.60;;;;;;2362458;53;20946;-65
2024/03/22 00:55:44;;;;;;;5.20;2.33;;;15.20;72.60;;;;;;2362860;53;20934;-67
2024/03/22 00:58:10;;;;;;;6.35;2.83;;;15.20;72.70;;;;;;2356697;53;21826;-66
2024/03/22 01:00:37;;;;;;;3.75;2.50;;;15.20;72.70;;;;;;2360279;53;20914;-67
2024/03/22 01:03:04;;;;;;;5.87;2.60;;;15.20;72.80;;;;;;2341361;53;21064;-66
2024/03/22 01:05:30;;;;;;;3.50;2.00;;;15.20;72.80;;;;;;2335833;53;21056;-67
2024/03/22 01:07:57;;;;;;;4.60;2.75;;;15.20;72.80;;;;;;2334970;53;20929;-67
2024/03/22 01:10:23;;;;;;;4.37;2.65;;;15.20;72.90;;;;;;2335796;53;20984;-68
2024/03/22 01:12:49;;;;;;;7.07;3.10;;;15.20;72.80;;;;;;2335548;53;21284;-68
2024/03/22 01:15:15;;;;;;;4.57;2.42;;;15.20;72.90;;;;;;2335599;53;20993;-66
2024/03/22 01:17:42;;;;;;;6.32;3.25;;;15.20;72.90;;;;;;2332992;54;21564;-66
2024/03/22 01:20:09;;;;;;;5.60;3.20;;;15.20;72.90;;;;;;2333787;53;20956;-66
2024/03/22 01:22:36;;;;;;;7.25;3.20;;;15.20;72.80;;;;;;2335624;53;20975;-68
2024/03/22 01:25:02;;;;;;;4.68;2.40;;;15.20;72.80;;;;;;2334818;53;21371;-66
2024/03/22 01:27:28;;;;;;;4.80;2.62;;;15.20;73.00;;;;;;2335251;53;21002;-66
2024/03/22 01:29:55;;;;;;;5.07;2.70;;;15.20;73.00;;;;;;2334702;53;21034;-67
2024/03/22 01:32:21;;;;;;;4.85;2.45;;;15.20;73.00;;;;;;2335336;53;20946;-66
2024/03/22 01:34:48;;;;;;;4.65;2.50;;;15.30;73.10;;;;;;2332822;53;21448;-66
2024/03/22 01:37:14;;;;;;;5.43;2.80;;;15.30;73.10;;;;;;2333112;53;21811;-66
2024/03/22 01:39:40;;;;;;;3.75;2.12;;;15.30;73.10;;;;;;2335859;53;20994;-66
2024/03/22 01:42:07;;;;;;;4.75;2.65;;;15.30;73.10;;;;;;2334825;53;21470;-67
2024/03/22 01:44:33;;;;;;;4.80;2.53;;;15.30;73.10;;;;;;2335994;53;20986;-67
2024/03/22 01:46:59;;;;;;;3.75;2.22;;;15.30;73.00;;;;;;2334832;53;20982;-66
2024/03/22 01:49:26;;;;;;;4.45;2.45;;;15.30;73.00;;;;;;2335319;53;21255;-66
2024/03/22 01:51:53;;;;;;;4.10;2.22;;;15.30;72.90;;;;;;2335684;53;21044;-67
2024/03/22 01:54:20;;;;;;;4.05;2.45;;;15.30;72.90;;;;;;2335704;53;21025;-66
2024/03/22 01:56:49;;;;;;;4.25;2.62;;;15.30;72.90;;;;;;2335471;53;21721;-67
2024/03/22 01:59:15;;;;;;;5.35;2.87;;;15.30;72.90;;;;;;2335745;53;21029;-67
2024/03/22 02:01:44;;;;;;;4.62;2.40;;;15.30;72.90;;;;;;2337498;53;20990;-66
2024/03/22 02:04:11;;;;;;;3.95;2.17;;;15.30;72.90;;;;;;2326851;53;21304;-66
2024/03/22 02:06:40;;;;;;;5.43;2.42;;;15.30;72.90;;;;;;2335739;53;21923;-66
2024/03/22 02:09:10;;;;;;;6.35;2.65;;;15.30;72.90;;;;;;2335588;53;21017;-67
2024/03/22 02:11:40;;;;;;;5.60;2.72;;;15.30;72.90;;;;;;2318508;54;20993;-68
2024/03/22 02:14:06;;;;;;;6.30;2.50;;;15.30;72.70;;;;;;2363216;54;21454;-66
2024/03/22 02:16:32;;;;;;;5.25;2.42;;;15.30;72.90;;;;;;2363815;54;20979;-67
2024/03/22 02:19:01;;;;;;;4.57;2.50;;;15.30;73.00;;;;;;2362741;54;20960;-68
2024/03/22 02:21:28;;;;;;;3.90;2.55;;;15.30;72.80;;;;;;2363008;54;21679;-67
2024/03/22 02:23:54;;;;;;;6.07;2.78;;;15.20;72.80;;;;;;2363451;54;20932;-66
2024/03/22 02:26:20;;;;;;;5.43;3.40;;;15.20;72.80;;;;;;2363162;54;21260;-66
2024/03/22 02:28:49;;;;;;;5.95;3.22;;;15.20;72.80;;;;;;2363346;54;21350;-66
2024/03/22 02:31:16;;;;;;;4.37;2.75;;;15.20;72.80;;;;;;2362707;54;21191;-66
2024/03/22 02:33:42;;;;;;;6.03;2.85;;;15.20;72.90;;;;;;2363284;54;21036;-66
2024/03/22 02:36:10;;;;;;;5.55;3.15;;;15.20;73.00;;;;;;2363176;53;20996;-67
2024/03/22 02:38:39;;;;;;;4.55;3.12;;;15.20;72.90;;;;;;2363986;54;20905;-67
2024/03/22 02:41:05;;;;;;;6.32;3.47;;;15.20;72.90;;;;;;2362795;54;20921;-67
2024/03/22 02:43:31;;;;;;;5.87;2.83;;;15.20;72.90;;;;;;2363448;54;21422;-66
2024/03/22 02:45:57;;;;;;;5.50;3.22;;;15.20;73.00;;;;;;2362708;54;21799;-66
2024/03/22 02:48:25;;;;;;;6.50;2.78;;;15.20;73.00;;;;;;2363906;54;20936;-66
2024/03/22 02:50:55;;;;;;;4.70;3.20;;;15.20;72.90;;;;;;2344926;53;21380;-67
2024/03/22 02:53:21;;;;;;;4.70;2.97;;;15.20;72.60;;;;;;2359338;54;20996;-67
2024/03/22 02:55:47;;;;;;;5.40;2.78;;;15.20;72.90;;;;;;2341149;53;21067;-66
2024/03/22 02:58:14;;;;;;;5.05;2.90;;;15.20;72.90;;;;;;2363250;54;20989;-67
2024/03/22 03:00:40;;;;;;;4.85;2.83;;;15.20;72.90;;;;;;2363170;54;21231;-65
2024/03/22 03:03:06;;;;;;;5.78;3.17;;;15.20;72.90;;;;;;2362717;54;21021;-67
2024/03/22 03:05:34;;;;;;;4.60;2.60;;;15.20;72.90;;;;;;2363455;54;20989;-67
2024/03/22 03:08:01;;;;;;;4.25;2.83;;;15.20;73.00;;;;;;2362536;54;20928;-65
2024/03/22 03:10:27;;;;;;;4.57;2.85;;;15.20;73.00;;;;;;2363815;54;21020;-66
2024/03/22 03:12:54;;;;;;;4.62;2.67;;;15.20;73.00;;;;;;2363712;54;20973;-66
2024/03/22 03:15:23;;;;;;;3.55;2.35;;;15.20;72.90;;;;;;2363922;54;21766;-66
2024/03/22 03:17:51;;;;;;;4.12;2.42;;;15.20;73.00;;;;;;2362879;54;21039;-67
2024/03/22 03:20:18;;;;;;;3.58;2.20;;;15.20;73.00;;;;;;2361602;54;20976;-68
2024/03/22 03:22:44;;;;;;;4.00;2.50;;;15.20;73.00;;;;;;2361903;54;20953;-67
2024/03/22 03:25:10;;;;;;;6.55;2.15;;;15.20;72.90;;;;;;2363347;54;20948;-66
2024/03/22 03:27:37;;;;;;;4.37;2.35;;;15.20;72.90;;;;;;2362833;54;21079;-66
2024/03/22 03:30:04;;;;;;;3.83;2.37;;;15.20;72.90;;;;;;2362527;54;21454;-66
2024/03/22 03:32:30;;;;;;;4.43;2.40;;;15.20;72.90;;;;;;2363250;54;21252;-66
2024/03/22 03:34:57;;;;;;;4.82;2.80;;;15.20;72.90;;;;;;2363066;54;21769;-67
2024/03/22 03:37:23;;;;;;;4.00;2.42;;;15.10;72.80;;;;;;2363186;54;21013;-67
2024/03/22 03:39:49;;;;;;;5.18;3.55;;;15.10;72.80;;;;;;2363666;54;21411;-66
2024/03/22 03:42:16;;;;;;;5.55;3.25;;;15.20;72.90;;;;;;2362860;54;21032;-66
2024/03/22 03:44:43;;;;;;;8.07;3.05;;;15.20;72.90;;;;;;2362878;54;20901;-68
2024/03/22 03:47:09;;;;;;;5.15;2.75;;;15.20;73.00;;;;;;2362518;54;20973;-66
2024/03/22 03:49:36;;;;;;;5.53;2.87;;;15.10;73.00;;;;;;2362213;54;21370;-66
2024/03/22 03:52:02;;;;;;;4.40;2.60;;;15.10;73.10;;;;;;2362523;54;21051;-68
2024/03/22 03:54:28;;;;;;;4.00;2.33;;;15.10;73.10;;;;;;2363224;54;20989;-68
2024/03/22 03:56:55;;;;;;;3.97;2.22;;;15.10;73.00;;;;;;2362934;54;20940;-66
2024/03/22 03:59:21;;;;;;;4.70;2.60;;;15.10;73.00;;;;;;2362688;54;21439;-67
2024/03/22 04:01:47;;;;;;;5.22;2.75;;;15.10;72.90;;;;;;2363618;54;21453;-66
2024/03/22 04:04:14;;;;;;;5.00;3.40;;;15.10;72.90;;;;;;2362559;54;20960;-67
2024/03/22 04:06:40;;;;;;;5.10;3.05;;;15.10;72.90;;;;;;2363247;54;20980;-67
2024/03/22 04:09:06;;;;;;;5.10;3.00;;;15.10;73.00;;;;;;2362894;54;20993;-66
2024/03/22 04:11:33;;;;;;;4.20;2.30;;;15.10;73.00;;;;;;2363969;54;20980;-67
2024/03/22 04:13:59;;;;;;;4.43;2.55;;;15.10;73.80;;;;;;2362605;54;21009;-66
2024/03/22 04:16:25;;;;;;;4.50;2.75;;;15.10;73.10;;;;;;2364330;54;20983;-68
2024/03/22 04:18:52;;;;;;;4.53;2.85;;;15.10;73.10;;;;;;2352733;53;21000;-67
2024/03/22 04:21:18;;;;;;;6.10;2.87;;;15.00;73.60;;;;;;2334261;53;21375;-67
2024/03/22 04:23:44;;;;;;;5.12;3.28;;;15.00;72.90;;;;;;2355891;53;21001;-68
2024/03/22 04:26:12;;;;;;;4.95;2.97;;;15.10;73.00;;;;;;2363126;54;21783;-66
2024/03/22 04:28:38;;;;;;;3.70;2.47;;;15.00;73.00;;;;;;2361735;54;21272;-68
2024/03/22 04:31:11;;;;;;;5.05;2.67;;;15.00;73.10;;;;;;2362607;54;21004;-67
2024/03/22 04:33:37;;;;;;;4.00;2.37;;;15.00;73.10;;;;;;2362638;54;20933;-67
2024/03/22 04:36:11;;;;;;;4.30;2.75;;;15.00;73.20;;;;;;2362805;54;21521;-68
2024/03/22 04:38:37;;;;;;;4.03;2.60;;;15.00;73.20;;;;;;2363016;53;21632;-67
2024/03/22 04:41:03;;;;;;;4.37;2.65;;;15.00;73.20;;;;;;2363478;54;21771;-67
2024/03/22 04:43:30;;;;;;;4.07;2.58;;;15.00;73.20;;;;;;2363115;54;21041;-66
2024/03/22 04:45:56;;;;;;;4.68;2.62;;;15.00;73.20;;;;;;2363097;54;21296;-68
2024/03/22 04:48:26;;;;;;;4.30;2.55;;;15.00;73.20;;;;;;2363053;54;21300;-68
2024/03/22 04:50:52;;;;;;;4.03;2.60;;;15.00;73.20;;;;;;2363698;54;20968;-66
2024/03/22 04:53:22;;;;;;;5.20;2.70;;;15.00;73.20;;;;;;2362744;54;21154;-67
2024/03/22 04:55:49;;;;;;;3.83;2.40;;;15.00;73.00;;;;;;2363878;54;20976;-66
2024/03/22 04:58:21;;;;;;;3.87;2.50;;;15.00;73.20;;;;;;2363249;54;20933;-67
2024/03/22 05:00:49;;;;;;;4.53;2.08;;;15.00;73.00;;;;;;2364062;54;20928;-66
2024/03/22 05:03:16;;;;;;;4.45;2.85;;;15.00;73.20;;;;;;2363324;54;20917;-69
2024/03/22 05:05:42;;;;;;;4.90;2.30;;;15.00;73.20;;;;;;2363359;54;20909;-67
2024/03/22 05:08:09;;;;;;;4.43;2.62;;;15.00;73.20;;;;;;2363639;54;20997;-66
2024/03/22 05:10:35;;;;;;;5.30;3.12;;;15.00;73.20;;;;;;2363608;54;21219;-68
2024/03/22 05:13:02;;;;;;;5.87;2.62;;;15.00;73.20;;;;;;2343951;53;20936;-66
2024/03/22 05:15:31;;;;;;;4.05;2.55;;;15.00;73.20;;;;;;2358391;53;21330;-68
2024/03/22 05:17:59;;;;;;;4.35;2.90;;;15.00;73.00;;;;;;2362588;54;20913;-66
2024/03/22 05:20:25;;;;;;;4.07;2.58;;;14.90;73.10;;;;;;2362241;54;20922;-67
2024/03/22 05:22:52;;;;;;;4.80;2.62;;;14.90;73.10;;;;;;2360900;53;20941;-67
2024/03/22 05:25:18;;;;;;;4.70;3.00;;;15.00;73.20;;;;;;2362958;54;20933;-68
2024/03/22 05:27:44;;;;;;;4.30;2.80;;;14.90;73.10;;;;;;2363504;54;21204;-66
2024/03/22 05:30:11;;;;;;;4.93;3.08;;;14.90;73.10;;;;;;2364147;54;20948;-66
2024/03/22 05:32:38;;;;;;;6.10;2.87;;;14.90;73.10;;;;;;2363985;54;21385;-67
2024/03/22 05:35:05;;;;;;;5.10;2.83;;;14.90;73.10;;;;;;2362408;54;20940;-67
2024/03/22 05:37:31;;;;;;;5.00;2.70;;;14.90;73.10;;;;;;2362719;54;21049;-66
2024/03/22 05:40:00;;;;;;;6.80;2.83;;;14.90;73.20;;;;;;2363037;54;21465;-68
2024/03/22 05:42:26;;;;;;;4.25;2.22;;;14.90;73.20;;;;;;2362477;54;21850;-66
2024/03/22 05:44:55;;;;;;;4.65;2.75;;;14.90;73.20;;;;;;2340635;53;20973;-67
2024/03/22 05:47:21;;;;;;;5.60;3.03;;;14.90;73.20;;;;;;2361837;54;20969;-66
2024/03/22 05:49:52;;;;;;;6.57;3.30;;;14.90;73.10;;;;;;2363813;54;21326;-67
2024/03/22 05:52:28;;;;;;;7.18;4.32;;;14.90;73.10;;;;;;2362776;54;20925;-68
2024/03/22 05:54:55;;;;;;;9.13;4.25;;;14.90;72.60;;;;;;2340711;53;20973;-66
2024/03/22 05:57:21;;;;;;;6.80;3.90;;;14.90;73.10;;;;;;2363444;54;21343;-67
2024/03/22 05:59:48;;;;;;;10.20;4.93;;;14.90;73.20;;;;;;2362898;54;21402;-67
2024/03/22 06:02:15;;;;;;;9.57;5.80;;;14.90;73.10;;;;;;2361347;53;20917;-66
2024/03/22 06:04:42;;;;;;;7.82;5.10;;;14.90;73.10;;;;;;2362655;54;21204;-66
2024/03/22 06:07:09;;;;;;;7.68;5.10;;;14.90;73.10;;;;;;2362748;53;21001;-66
2024/03/22 06:09:37;;;;;;;7.68;4.75;;;14.90;73.10;;;;;;2340226;53;21309;-66
2024/03/22 06:12:08;;;;;;;7.45;4.47;;;14.90;73.20;;;;;;2363299;54;21261;-66
2024/03/22 06:14:36;;;;;;;7.25;4.37;;;14.90;73.00;;;;;;2366168;54;20905;-67
2024/03/22 06:17:03;;;;;;;6.55;4.40;;;14.90;73.10;;;;;;2363341;54;21012;-68
2024/03/22 06:19:32;;;;;;;8.30;4.60;;;14.90;73.10;;;;;;2363213;54;21003;-67
2024/03/22 06:21:58;;;;;;;7.60;4.18;;;14.90;73.20;;;;;;2363137;54;20933;-65
2024/03/22 06:24:24;;;;;;;6.60;3.40;;;14.80;73.10;;;;;;2348455;54;21442;-66
2024/03/22 06:26:51;;;;;;;4.85;3.22;;;14.80;73.10;;;;;;2355838;53;21834;-67
2024/03/22 06:29:17;;;;;;;5.65;3.40;;;14.80;73.20;;;;;;2362835;54;21017;-65
2024/03/22 06:31:43;;;;;;;5.97;3.35;;;14.80;73.30;;;;;;2364059;54;21413;-66
2024/03/22 06:34:09;;;;;;;5.28;3.35;;;14.80;73.30;;;;;;2363513;54;21020;-68
2024/03/22 06:36:35;;;;;;;5.45;3.60;;;14.80;73.30;;;;;;2363606;54;21394;-67
2024/03/22 06:39:09;;;;;;;5.78;3.20;;;14.80;73.30;;;;;;2362765;54;20917;-66
2024/03/22 06:41:36;;;;;;;5.28;3.17;;;14.80;73.40;;;;;;2363419;54;20952;-68
2024/03/22 06:44:02;;;;;;;6.28;3.33;;;14.90;73.60;;;;;;2363517;54;21162;-67
2024/03/22 06:46:28;;;;;;;5.72;3.12;;;14.90;73.80;;;;;;2363622;54;20941;-66
2024/03/22 06:48:55;;;;;;;5.65;3.45;;;14.90;73.80;;;;;;2363392;54;20925;-68
2024/03/22 06:51:22;;;;;;;9.30;4.90;;;14.90;73.90;;;;;;2362327;54;21371;-68
2024/03/22 06:53:48;;;;;;;9.32;5.15;;;14.90;74.10;;;;;;2363533;54;21481;-66
2024/03/22 06:56:16;;;;;;;11.77;6.95;;;14.90;74.20;;;;;;2364153;54;20973;-68
2024/03/22 06:58:44;;;;;;;10.70;6.03;;;15.00;74.40;;;;;;2364022;54;21378;-66
2024/03/22 07:01:11;;;;;;;9.98;6.12;;;15.00;74.50;;;;;;2362926;54;21414;-66
2024/03/22 07:03:39;;;;;;;9.55;6.12;;;15.00;74.60;;;;;;2364149;54;21442;-67
2024/03/22 07:06:09;;;;;;;7.80;5.22;;;15.10;74.80;;;;;;2363976;54;21731;-65
2024/03/22 07:08:35;;;;;;;8.35;5.30;;;15.00;74.80;;;;;;2363379;54;21016;-67
2024/03/22 07:11:05;;;;;;;9.65;4.82;;;15.20;75.10;;;;;;2363597;54;21071;-66
2024/03/22 07:13:34;;;;;;;6.93;4.00;;;15.20;74.90;;;;;;2363716;54;20909;-66
2024/03/22 07:16:00;;;;;;;7.28;4.07;;;15.30;75.20;;;;;;2309419;53;20976;-68
2024/03/22 07:18:26;;;;;;;5.87;3.72;;;15.40;75.20;;;;;;2329071;53;20921;-68
2024/03/22 07:20:53;;;;;;;6.43;3.55;;;15.40;75.10;;;;;;2335927;53;20988;-67
2024/03/22 07:23:19;;;;;;;5.35;3.42;;;15.50;75.20;;;;;;2335267;53;20992;-66
2024/03/22 07:25:48;;;;;;;5.82;3.28;;;15.50;75.10;;;;;;2335993;53;21277;-67
2024/03/22 07:28:15;;;;;;;6.15;3.30;;;15.60;75.20;;;;;;2335347;53;20957;-68
2024/03/22 07:30:42;;;;;;;4.78;2.85;;;15.60;75.20;;;;;;2335322;53;20956;-68
2024/03/22 07:33:10;;;;;;;4.15;2.70;;;15.70;75.20;;;;;;2335596;53;21762;-66
2024/03/22 07:35:36;;;;;;;5.75;3.20;;;15.70;75.10;;;;;;2335725;53;20968;-68
2024/03/22 07:38:04;;;;;;;5.50;3.80;;;15.80;75.30;;;;;;2336426;53;20997;-67
2024/03/22 07:40:30;;;;;;;6.40;4.30;;;15.80;75.30;;;;;;2335506;53;21001;-66
2024/03/22 07:42:59;;;;;;;5.70;3.53;;;15.90;75.40;;;;;;2344123;53;21031;-66
2024/03/22 07:45:25;;;;;;;5.90;3.87;;;15.90;75.30;;;;;;2302038;54;20947;-67
2024/03/22 07:47:51;;;;;;;5.93;3.65;;;16.00;75.30;;;;;;2331102;53;21413;-67
2024/03/22 07:50:36;;;;;;;5.35;3.87;;;16.00;75.30;;;;;;2335000;54;20962;-67
2024/03/22 07:53:02;;;;;;;6.10;3.70;;;16.10;74.30;;;;;;2360745;53;21062;-67
2024/03/22 07:55:32;;;;;;;5.72;4.15;;;16.10;75.40;;;;;;2362815;53;20930;-68
2024/03/22 07:57:59;;;;;;;6.05;4.12;;;16.20;75.50;;;;;;2336051;53;20921;-68
2024/03/22 08:00:25;;;;;;;5.82;3.78;;;16.30;75.60;;;;;;2335711;53;20993;-68
2024/03/22 08:02:52;;;;;;;5.82;3.65;;;16.30;75.60;;;;;;2335851;53;20941;-67
2024/03/22 08:05:19;;;;;;;6.68;4.35;;;16.40;75.80;;;;;;2335708;53;21003;-66
2024/03/22 08:07:45;;;;;;;6.85;4.45;;;16.40;75.90;;;;;;2360040;53;21561;-68
2024/03/22 08:10:15;;;;;;;7.95;5.00;;;16.50;76.20;;;;;;2363666;53;20922;-67
2024/03/22 08:12:41;;;;;;;8.57;5.65;;;16.60;76.50;;;;;;2363717;53;20923;-67
2024/03/22 08:15:08;;;;;;;7.25;4.65;;;16.70;76.80;;;;;;2363726;53;20927;-67
2024/03/22 08:17:34;;;;;;;8.68;4.68;;;16.70;77.00;;;;;;2363150;53;20994;-67
2024/03/22 08:20:04;;;;;;;7.87;4.55;;;16.80;77.40;;;;;;2363416;53;21041;-68
2024/03/22 08:22:33;;;;;;;6.22;4.62;;;16.90;77.80;;;;;;2611350;52;21028;-68
2024/03/22 08:25:02;;;;;;;8.60;4.75;;;17.10;77.60;;;;;;2346191;53;20937;-66
2024/03/22 08:27:28;;;;;;;6.87;5.07;;;17.20;78.10;;;;;;2362451;53;21306;-67
2024/03/22 08:29:54;;;;;;;7.55;4.87;;;17.30;78.50;;;;;;2357938;53;20942;-66
2024/03/22 08:32:21;;;;;;;7.68;5.25;;;17.40;78.80;;;;;;2362159;53;20929;-67
2024/03/22 08:34:47;;;;;;;7.57;5.12;;;17.50;79.00;;;;;;2365856;53;20939;-67
2024/03/22 08:37:14;;;;;;;9.30;5.65;;;17.70;79.30;;;;;;2352740;53;20955;-67
2024/03/22 08:39:41;;;;;;;7.12;4.87;;;17.90;79.50;;;;;;2363490;53;21174;-67
2024/03/22 08:42:07;;;;;;;7.53;5.50;;;18.00;79.50;;;;;;2359928;53;20935;-66
2024/03/22 08:44:34;;;;;;;7.87;5.62;;;18.10;79.40;;;;;;2304918;54;21023;-66
2024/03/22 08:47:01;;;;;;;6.72;4.57;;;18.30;79.50;;;;;;2341400;53;21021;-69
2024/03/22 08:49:28;;;;;;;8.13;4.45;;;18.40;79.50;;;;;;2336452;53;21008;-67
2024/03/22 08:51:57;;;;;;;7.40;4.95;;;18.60;79.80;;;;;;2336034;53;20944;-67
2024/03/22 08:54:25;;;;;;;6.32;3.75;;;18.80;79.20;;;;;;2343822;53;21087;-69
2024/03/22 08:56:51;;;;;;;6.05;4.03;;;18.90;79.70;;;;;;2342141;53;20920;-71
2024/03/22 08:59:17;;;;;;;4.75;3.22;;;19.10;79.70;;;;;;2334683;53;21005;-67
2024/03/22 09:01:44;;;;;;;4.55;3.15;;;19.20;79.40;;;;;;2335833;53;21779;-67
2024/03/22 09:04:10;;;;;;;4.93;3.40;;;19.30;78.70;;;;;;2335607;53;21044;-67
2024/03/22 09:06:36;;;;;;;7.70;4.10;;;19.40;78.40;;;;;;2335605;53;20956;-67
2024/03/22 09:09:03;;;;;;;5.47;3.50;;;19.60;78.50;;;;;;2335992;53;20989;-70
2024/03/22 09:11:30;;;;;;;5.95;3.72;;;19.70;78.70;;;;;;2335349;53;21877;-67
2024/03/22 09:13:56;;;;;;;5.05;3.60;;;19.80;78.70;;;;;;2339463;53;21146;-67
2024/03/22 09:16:23;;;;;;;6.47;3.60;;;19.90;79.00;;;;;;2363692;53;20968;-67
2024/03/22 09:18:50;;;;;;;6.35;3.28;;;20.10;79.00;;;;;;2363271;53;21027;-69
2024/03/22 09:21:16;;;;;;;5.32;3.35;;;20.20;78.50;;;;;;2362853;53;21151;-68
2024/03/22 09:23:42;;;;;;;4.65;2.95;;;20.30;78.20;;;;;;2361382;53;20924;-68
2024/03/22 09:26:11;;;;;;;6.07;3.00;;;20.50;78.40;;;;;;2357658;53;20946;-68
2024/03/22 09:28:39;;;;;;;4.60;3.15;;;20.50;78.30;;;;;;2342482;53;20941;-67
2024/03/22 09:31:07;;;;;;;4.65;3.12;;;20.70;78.30;;;;;;2307467;54;21517;-69
2024/03/22 09:33:36;;;;;;;4.60;3.20;;;20.80;78.10;;;;;;2337584;53;21481;-67
2024/03/22 09:36:03;;;;;;;3.90;2.58;;;20.90;77.50;;;;;;2328676;53;20913;-67
2024/03/22 09:38:29;;;;;;;5.50;2.97;;;21.00;78.30;;;;;;2355698;53;21010;-68
2024/03/22 09:40:55;;;;;;;4.60;3.35;;;21.20;78.40;;;;;;2362537;53;20950;-67
2024/03/22 09:43:22;;;;;;;5.22;3.00;;;21.30;78.10;;;;;;2362699;53;20937;-67
2024/03/22 09:45:51;;;;;;;4.82;3.03;;;21.40;78.30;;;;;;2343593;53;20989;-67
2024/03/22 09:48:21;;;;;;;4.80;3.30;;;21.50;78.00;;;;;;2362295;53;20931;-67
2024/03/22 09:50:49;;;;;;;5.25;3.70;;;21.60;77.80;;;;;;2354495;53;20944;-68
2024/03/22 09:53:20;;;;;;;4.47;3.03;;;21.80;78.00;;;;;;2362656;53;22005;-68
2024/03/22 09:55:48;;;;;;;5.05;3.62;;;21.90;77.20;;;;;;2363447;53;20926;-67
2024/03/22 09:58:16;;;;;;;5.12;3.03;;;22.00;78.00;;;;;;2363444;53;22167;-67
2024/03/22 10:00:43;;;;;;;3.95;2.85;;;22.10;77.60;;;;;;2363457;53;20910;-67
2024/03/22 10:03:10;;;;;;;4.60;2.95;;;22.20;76.70;;;;;;2363967;53;20990;-68
2024/03/22 10:05:37;;;;;;;3.58;2.10;;;22.20;76.00;;;;;;2363917;53;21254;-67
2024/03/22 10:08:10;;;;;;;4.53;2.53;;;22.30;76.30;;;;;;2363311;53;20935;-68
2024/03/22 10:10:39;;;;;;;3.25;1.83;;;22.40;75.00;;;;;;2363157;53;20911;-69
2024/03/22 10:13:05;;;;;;;4.18;2.30;;;22.50;75.60;;;;;;2363283;53;20938;-68
2024/03/22 10:15:32;;;;;;;4.65;2.03;;;22.50;75.00;;;;;;2363946;53;20945;-67
2024/03/22 10:18:01;;;;;;;5.22;2.50;;;22.60;74.90;;;;;;2362808;53;21018;-68
2024/03/22 10:20:28;;;;;;;2.80;1.52;;;22.50;74.30;;;;;;2363176;53;21025;-69
2024/03/22 10:23:00;;;;;;;4.87;2.22;;;22.60;74.40;;;;;;2362815;53;20907;-67
2024/03/22 10:25:30;;;;;;;5.70;2.10;;;22.60;72.60;;;;;;2363354;53;20922;-68
2024/03/22 10:27:56;;;;;;;3.67;2.00;;;22.60;74.10;;;;;;2364034;53;21801;-67
2024/03/22 10:30:25;;;;;;;3.72;2.10;;;22.70;74.30;;;;;;2363047;53;21135;-67
2024/03/22 10:32:52;;;;;;;3.60;2.25;;;22.70;73.80;;;;;;2363093;53;20911;-67
2024/03/22 10:35:18;;;;;;;3.70;1.80;;;22.80;74.50;;;;;;2363323;53;21796;-67
2024/03/22 10:37:44;;;;;;;4.85;2.20;;;22.80;74.10;;;;;;2354451;53;20931;-68
2024/03/22 10:40:14;;;;;;;3.42;1.98;;;22.90;73.70;;;;;;2363495;53;20910;-69
2024/03/22 10:42:40;;;;;;;2.75;1.65;;;23.00;73.70;;;;;;2363106;53;20982;-67
2024/03/22 10:45:08;;;;;;;4.37;2.15;;;23.00;73.20;;;;;;2363477;53;20918;-68
2024/03/22 10:47:36;;;;;;;3.30;1.75;;;23.00;72.10;;;;;;2362792;53;20967;-68
2024/03/22 10:50:13;;;;;;;3.58;1.77;;;23.00;72.20;;;;;;2356197;53;20966;-68
2024/03/22 10:52:52;;;;;;;4.80;2.15;;;23.10;70.10;;;;;;2362786;53;21068;-67
2024/03/22 10:55:30;;;;;;;3.92;1.60;;;23.20;70.00;;;;;;2363217;53;20915;-66
2024/03/22 10:57:59;;;;;;;4.25;1.52;;;23.20;71.40;;;;;;2361810;53;21800;-67
2024/03/22 11:00:33;;;;;;;2.55;1.42;;;23.30;72.40;;;;;;2363065;53;20962;-67
2024/03/22 11:03:03;;;;;;;3.30;1.87;;;23.30;71.40;;;;;;2364812;53;20950;-68
2024/03/22 11:05:30;;;;;;;3.47;1.60;;;23.40;71.80;;;;;;2363339;53;20930;-67
2024/03/22 11:08:00;;;;;;;4.18;2.10;;;23.40;72.80;;;;;;2362769;53;20918;-68
2024/03/22 11:10:30;;;;;;;4.07;1.90;;;23.50;71.50;;;;;;2363344;53;21313;-68
2024/03/22 11:13:00;;;;;;;3.50;1.55;;;23.60;71.70;;;;;;2365602;53;21672;-69
2024/03/22 11:15:28;;;;;;;2.97;1.60;;;23.60;72.60;;;;;;2352068;53;20938;-70
2024/03/22 11:17:54;;;;;;;2.83;1.30;;;23.60;72.10;;;;;;2362970;53;20962;-67
2024/03/22 11:20:21;;;;;;;3.17;1.37;;;23.70;72.60;;;;;;2363198;53;21478;-67
2024/03/22 11:22:47;;;;;;;5.25;2.10;;;23.80;72.60;;;;;;2363280;53;21403;-67
2024/03/22 11:25:13;;;;;;;4.60;2.12;;;23.80;72.00;;;;;;2362850;53;20986;-69
2024/03/22 11:27:39;;;;;;;3.83;1.92;;;23.80;72.00;;;;;;2363311;53;21073;-68
2024/03/22 11:30:07;;;;;;;3.28;1.55;;;23.90;71.70;;;;;;2362459;53;20946;-69
2024/03/22 11:32:45;;;;;;;4.47;1.80;;;24.00;72.10;;;;;;2363421;53;20934;-70
2024/03/22 11:35:12;;;;;;;3.50;1.52;;;24.00;72.10;;;;;;2363092;53;20969;-67
2024/03/22 11:37:41;;;;;;;3.42;1.80;;;24.10;72.60;;;;;;2362854;53;20962;-68
2024/03/22 11:40:11;;;;;;;2.90;1.70;;;24.20;72.30;;;;;;2362028;53;21765;-68
2024/03/22 11:42:39;;;;;;;3.83;1.60;;;24.30;71.70;;;;;;2362761;53;21690;-68
2024/03/22 11:45:06;;;;;;;2.53;1.23;;;24.40;72.50;;;;;;2362348;53;20942;-68
2024/03/22 11:47:33;;;;;;;4.15;1.23;;;24.50;72.90;;;;;;2363349;53;20930;-71
2024/03/22 11:49:59;;;;;;;2.83;1.40;;;24.60;72.30;;;;;;2360290;53;20934;-67
2024/03/22 11:52:26;;;;;;;2.72;1.15;;;24.70;72.20;;;;;;2361895;53;21002;-68
2024/03/22 11:54:52;;;;;;;2.72;1.30;;;24.80;71.70;;;;;;2342196;53;20957;-71
2024/03/22 11:57:20;;;;;;;2.95;1.25;;;24.90;71.70;;;;;;2336029;53;21521;-68
2024/03/22 11:59:47;;;;;;;3.67;1.25;;;25.00;71.10;;;;;;2335132;53;20936;-67
2024/03/22 12:02:21;;;;;;;4.03;1.10;;;25.00;71.00;;;;;;2328202;53;20935;-67
2024/03/22 12:04:47;;;;;;;3.22;1.10;;;25.10;70.90;;;;;;2332367;53;21196;-68
2024/03/22 12:07:14;;;;;;;2.20;0.98;;;25.10;70.50;;;;;;2333499;53;20985;-68
2024/03/22 12:09:42;;;;;;;2.90;1.05;;;25.20;70.70;;;;;;2323856;53;21025;-68
2024/03/22 12:12:08;;;;;;;1.92;1.00;;;25.20;70.30;;;;;;2335729;53;21056;-67
2024/03/22 12:14:35;;;;;;;2.70;1.10;;;25.20;69.70;;;;;;2335976;53;20948;-69
2024/03/22 12:17:04;;;;;;;2.33;1.00;;;25.20;70.00;;;;;;2335342;53;20930;-67
2024/03/22 12:19:31;;;;;;;1.90;0.90;;;25.20;69.50;;;;;;2335393;53;20927;-72
2024/03/22 12:21:58;;;;;;;2.50;1.00;;;25.20;69.60;;;;;;2335023;53;20950;-70
2024/03/22 12:24:24;;;;;;;3.25;1.30;;;25.20;68.90;;;;;;2359690;53;20924;-67
2024/03/22 12:26:50;;;;;;;2.80;1.20;;;25.20;68.20;;;;;;2355945;53;20931;-69
2024/03/22 12:29:17;;;;;;;2.10;0.90;;;25.20;68.00;;;;;;2361990;54;21679;-69
2024/03/22 12:31:43;;;;;;;3.03;1.40;;;25.20;68.20;;;;;;2363853;54;20949;-72
2024/03/22 12:34:09;;;;;;;3.53;1.67;;;25.20;67.80;;;;;;2363298;53;20960;-69
2024/03/22 12:36:36;;;;;;;3.00;1.30;;;25.20;68.00;;;;;;2366314;54;21624;-69
2024/03/22 12:39:06;;;;;;;3.28;1.23;;;25.20;67.90;;;;;;2337767;53;20917;-70
2024/03/22 12:41:33;;;;;;;2.25;0.93;;;25.20;67.60;;;;;;2363191;54;21036;-69
2024/03/22 12:43:59;;;;;;;3.35;1.40;;;25.10;67.10;;;;;;2364386;54;21260;-69
2024/03/22 12:46:25;;;;;;;2.65;1.20;;;25.10;67.30;;;;;;2362369;54;21304;-69